sensor_id;sensor_type;location;lat;lon;timestamp;P1;durP1;ratioP1;P2;durP2;ratioP2
6665;SDS011;3369;49.906;8.598;2023-09-19T00:01:07;1.47;;;1.20;;
6665;SDS011;3369;49.906;8.598;2023-09-19T00:03:34;1.93;;;1.27;;
6665;SDS011;3369;49.906;8.598;2023-09-19T00:06:20;1.33;;;0.93;;
6665;SDS011;3369;49.906;8.598;2023-09-19T00:08:45;2.57;;;1.30;;
6665;SDS011;3369;49.906;8.598;2023-09-19T00:11:13;2.17;;;1.27;;
6665;SDS011;3369;49.906;8.598;2023-09-19T00:13:39;1.40;;;1.17;;
6665;SDS011;3369;49.906;8.598;2023-09-19T00:16:10;1.50;;;1.40;;
6665;SDS011;3369;49.906;8.598;2023-09-19T00:18:37;1.27;;;1.07;;
6665;SDS011;3369;49.906;8.598;2023-09-19T00:21:03;1.93;;;1.20;;
6665;SDS011;3369;49.906;8.598;2023-09-19T00:23:32;1.80;;;1.30;;
6665;SDS011;3369;49.906;8.598;2023-09-19T00:25:59;1.77;;;1.13;;
6665;SDS011;3369;49.906;8.598;2023-09-19T00:28:26;2.10;;;1.30;;
6665;SDS011;3369;49.906;8.598;2023-09-19T00:30:52;2.23;;;1.53;;
6665;SDS011;3369;49.906;8.598;2023-09-19T00:33:37;1.67;;;1.23;;
6665;SDS011;3369;49.906;8.598;2023-09-19T00:36:04;2.23;;;1.37;;
6665;SDS011;3369;49.906;8.598;2023-09-19T00:38:30;1.53;;;1.30;;
6665;SDS011;3369;49.906;8.598;2023-09-19T00:41:02;5.73;;;1.70;;
6665;SDS011;3369;49.906;8.598;2023-09-19T00:43:29;4.30;;;2.00;;
6665;SDS011;3369;49.906;8.598;2023-09-19T00:45:59;1.63;;;1.33;;
6665;SDS011;3369;49.906;8.598;2023-09-19T00:48:26;1.80;;;1.20;;
6665;SDS011;3369;49.906;8.598;2023-09-19T00:50:53;2.47;;;1.60;;
6665;SDS011;3369;49.906;8.598;2023-09-19T00:53:23;1.90;;;1.23;;
6665;SDS011;3369;49.906;8.598;2023-09-19T00:55:52;2.03;;;1.20;;
6665;SDS011;3369;49.906;8.598;2023-09-19T00:58:21;2.33;;;1.50;;
6665;SDS011;3369;49.906;8.598;2023-09-19T01:00:49;2.33;;;1.33;;
6665;SDS011;3369;49.906;8.598;2023-09-19T01:03:16;3.03;;;1.10;;
6665;SDS011;3369;49.906;8.598;2023-09-19T01:05:43;1.97;;;1.40;;
6665;SDS011;3369;49.906;8.598;2023-09-19T01:08:09;1.90;;;1.43;;
6665;SDS011;3369;49.906;8.598;2023-09-19T01:10:44;3.53;;;1.63;;
6665;SDS011;3369;49.906;8.598;2023-09-19T01:18:45;3.27;;;1.83;;
6665;SDS011;3369;49.906;8.598;2023-09-19T01:21:35;2.97;;;1.20;;
6665;SDS011;3369;49.906;8.598;2023-09-19T01:28:02;3.20;;;1.50;;
6665;SDS011;3369;49.906;8.598;2023-09-19T01:30:40;1.93;;;1.47;;
6665;SDS011;3369;49.906;8.598;2023-09-19T01:33:09;1.70;;;1.33;;
6665;SDS011;3369;49.906;8.598;2023-09-19T01:35:38;1.47;;;1.37;;
6665;SDS011;3369;49.906;8.598;2023-09-19T01:38:05;1.70;;;1.40;;
6665;SDS011;3369;49.906;8.598;2023-09-19T01:40:43;3.67;;;1.50;;
6665;SDS011;3369;49.906;8.598;2023-09-19T01:48:54;2.00;;;1.73;;
6665;SDS011;3369;49.906;8.598;2023-09-19T01:54:20;4.10;;;1.70;;
6665;SDS011;3369;49.906;8.598;2023-09-19T01:56:57;2.20;;;1.80;;
6665;SDS011;3369;49.906;8.598;2023-09-19T01:59:34;4.20;;;1.57;;
6665;SDS011;3369;49.906;8.598;2023-09-19T02:02:06;3.33;;;1.90;;
6665;SDS011;3369;49.906;8.598;2023-09-19T02:04:34;1.80;;;1.37;;
6665;SDS011;3369;49.906;8.598;2023-09-19T02:07:00;2.73;;;1.77;;
6665;SDS011;3369;49.906;8.598;2023-09-19T02:09:29;4.63;;;1.63;;
6665;SDS011;3369;49.906;8.598;2023-09-19T02:11:56;3.20;;;1.93;;
6665;SDS011;3369;49.906;8.598;2023-09-19T02:14:24;2.40;;;1.63;;
6665;SDS011;3369;49.906;8.598;2023-09-19T02:16:50;4.60;;;2.00;;
6665;SDS011;3369;49.906;8.598;2023-09-19T02:19:17;8.93;;;1.83;;
6665;SDS011;3369;49.906;8.598;2023-09-19T02:21:44;2.60;;;1.80;;
6665;SDS011;3369;49.906;8.598;2023-09-19T02:24:09;4.17;;;2.00;;
6665;SDS011;3369;49.906;8.598;2023-09-19T02:26:35;2.13;;;1.33;;
6665;SDS011;3369;49.906;8.598;2023-09-19T02:29:01;1.60;;;1.40;;
6665;SDS011;3369;49.906;8.598;2023-09-19T02:31:30;2.77;;;1.57;;
6665;SDS011;3369;49.906;8.598;2023-09-19T02:33:56;2.97;;;1.80;;
6665;SDS011;3369;49.906;8.598;2023-09-19T02:36:23;3.40;;;1.97;;
6665;SDS011;3369;49.906;8.598;2023-09-19T02:38:49;1.67;;;1.53;;
6665;SDS011;3369;49.906;8.598;2023-09-19T02:41:15;1.73;;;1.50;;
6665;SDS011;3369;49.906;8.598;2023-09-19T02:43:43;3.00;;;1.70;;
6665;SDS011;3369;49.906;8.598;2023-09-19T02:46:09;4.43;;;1.57;;
6665;SDS011;3369;49.906;8.598;2023-09-19T02:48:38;1.90;;;1.33;;
6665;SDS011;3369;49.906;8.598;2023-09-19T02:51:04;1.53;;;1.43;;
6665;SDS011;3369;49.906;8.598;2023-09-19T02:53:31;3.23;;;1.63;;
6665;SDS011;3369;49.906;8.598;2023-09-19T02:55:58;1.50;;;1.40;;
6665;SDS011;3369;49.906;8.598;2023-09-19T02:58:25;1.73;;;1.60;;
6665;SDS011;3369;49.906;8.598;2023-09-19T03:00:54;2.17;;;1.90;;
6665;SDS011;3369;49.906;8.598;2023-09-19T03:03:33;2.87;;;1.80;;
6665;SDS011;3369;49.906;8.598;2023-09-19T03:06:00;3.83;;;1.90;;
6665;SDS011;3369;49.906;8.598;2023-09-19T03:08:30;2.17;;;1.70;;
6665;SDS011;3369;49.906;8.598;2023-09-19T03:10:57;1.97;;;1.63;;
6665;SDS011;3369;49.906;8.598;2023-09-19T03:13:25;2.67;;;2.00;;
6665;SDS011;3369;49.906;8.598;2023-09-19T03:15:55;1.60;;;1.50;;
6665;SDS011;3369;49.906;8.598;2023-09-19T03:18:23;1.80;;;1.50;;
6665;SDS011;3369;49.906;8.598;2023-09-19T03:20:57;1.60;;;1.40;;
6665;SDS011;3369;49.906;8.598;2023-09-19T03:23:27;2.00;;;1.80;;
6665;SDS011;3369;49.906;8.598;2023-09-19T03:25:55;3.70;;;1.93;;
6665;SDS011;3369;49.906;8.598;2023-09-19T03:28:22;2.37;;;1.83;;
6665;SDS011;3369;49.906;8.598;2023-09-19T03:31:04;4.33;;;1.90;;
6665;SDS011;3369;49.906;8.598;2023-09-19T03:33:46;2.10;;;1.90;;
6665;SDS011;3369;49.906;8.598;2023-09-19T03:36:12;2.83;;;1.90;;
6665;SDS011;3369;49.906;8.598;2023-09-19T03:38:38;2.30;;;1.90;;
6665;SDS011;3369;49.906;8.598;2023-09-19T03:41:04;2.47;;;1.70;;
6665;SDS011;3369;49.906;8.598;2023-09-19T03:43:31;2.30;;;1.70;;
6665;SDS011;3369;49.906;8.598;2023-09-19T03:46:01;2.20;;;1.67;;
6665;SDS011;3369;49.906;8.598;2023-09-19T03:48:30;1.60;;;1.50;;
6665;SDS011;3369;49.906;8.598;2023-09-19T03:50:57;2.13;;;1.97;;
6665;SDS011;3369;49.906;8.598;2023-09-19T03:53:23;1.57;;;1.47;;
6665;SDS011;3369;49.906;8.598;2023-09-19T03:55:49;1.70;;;1.60;;
6665;SDS011;3369;49.906;8.598;2023-09-19T03:58:15;2.07;;;1.80;;
6665;SDS011;3369;49.906;8.598;2023-09-19T04:00:41;3.10;;;1.73;;
6665;SDS011;3369;49.906;8.598;2023-09-19T04:03:07;2.07;;;1.40;;
6665;SDS011;3369;49.906;8.598;2023-09-19T04:05:32;1.63;;;1.53;;
6665;SDS011;3369;49.906;8.598;2023-09-19T04:07:58;2.20;;;1.67;;
6665;SDS011;3369;49.906;8.598;2023-09-19T04:10:24;2.67;;;1.83;;
6665;SDS011;3369;49.906;8.598;2023-09-19T04:12:54;2.20;;;2.00;;
6665;SDS011;3369;49.906;8.598;2023-09-19T04:15:21;2.93;;;1.80;;
6665;SDS011;3369;49.906;8.598;2023-09-19T04:17:51;2.73;;;1.73;;
6665;SDS011;3369;49.906;8.598;2023-09-19T04:20:17;2.13;;;2.00;;
6665;SDS011;3369;49.906;8.598;2023-09-19T04:22:51;3.23;;;1.90;;
6665;SDS011;3369;49.906;8.598;2023-09-19T04:25:16;3.83;;;1.97;;
6665;SDS011;3369;49.906;8.598;2023-09-19T04:27:49;3.60;;;1.80;;
6665;SDS011;3369;49.906;8.598;2023-09-19T04:30:21;3.27;;;2.03;;
6665;SDS011;3369;49.906;8.598;2023-09-19T04:32:46;3.13;;;1.70;;
6665;SDS011;3369;49.906;8.598;2023-09-19T04:35:16;2.23;;;1.67;;
6665;SDS011;3369;49.906;8.598;2023-09-19T04:37:43;1.70;;;1.60;;
6665;SDS011;3369;49.906;8.598;2023-09-19T04:40:09;2.30;;;1.83;;
6665;SDS011;3369;49.906;8.598;2023-09-19T04:42:39;2.23;;;2.03;;
6665;SDS011;3369;49.906;8.598;2023-09-19T04:45:05;2.27;;;1.90;;
6665;SDS011;3369;49.906;8.598;2023-09-19T04:47:32;3.07;;;2.33;;
6665;SDS011;3369;49.906;8.598;2023-09-19T04:49:58;3.00;;;2.03;;
6665;SDS011;3369;49.906;8.598;2023-09-19T04:52:24;3.57;;;2.20;;
6665;SDS011;3369;49.906;8.598;2023-09-19T04:54:50;2.83;;;2.00;;
6665;SDS011;3369;49.906;8.598;2023-09-19T04:57:16;2.30;;;1.77;;
6665;SDS011;3369;49.906;8.598;2023-09-19T04:59:41;1.87;;;1.60;;
6665;SDS011;3369;49.906;8.598;2023-09-19T05:02:07;1.87;;;1.77;;
6665;SDS011;3369;49.906;8.598;2023-09-19T05:04:37;2.73;;;1.90;;
6665;SDS011;3369;49.906;8.598;2023-09-19T05:07:03;1.83;;;1.63;;
6665;SDS011;3369;49.906;8.598;2023-09-19T05:09:29;2.63;;;1.93;;
6665;SDS011;3369;49.906;8.598;2023-09-19T05:11:56;2.17;;;1.97;;
6665;SDS011;3369;49.906;8.598;2023-09-19T05:14:21;2.63;;;2.30;;
6665;SDS011;3369;49.906;8.598;2023-09-19T05:16:47;3.80;;;2.50;;
6665;SDS011;3369;49.906;8.598;2023-09-19T05:19:19;3.77;;;2.87;;
6665;SDS011;3369;49.906;8.598;2023-09-19T05:21:45;4.33;;;2.83;;
6665;SDS011;3369;49.906;8.598;2023-09-19T05:24:12;3.03;;;2.73;;
6665;SDS011;3369;49.906;8.598;2023-09-19T05:26:39;3.77;;;2.77;;
6665;SDS011;3369;49.906;8.598;2023-09-19T05:29:05;4.37;;;3.00;;
6665;SDS011;3369;49.906;8.598;2023-09-19T05:31:33;3.97;;;3.20;;
6665;SDS011;3369;49.906;8.598;2023-09-19T05:34:01;4.70;;;3.20;;
6665;SDS011;3369;49.906;8.598;2023-09-19T05:36:27;3.10;;;2.83;;
6665;SDS011;3369;49.906;8.598;2023-09-19T05:38:54;7.40;;;3.60;;
6665;SDS011;3369;49.906;8.598;2023-09-19T05:41:20;4.53;;;3.03;;
6665;SDS011;3369;49.906;8.598;2023-09-19T05:43:48;5.60;;;3.30;;
6665;SDS011;3369;49.906;8.598;2023-09-19T05:46:15;6.13;;;3.20;;
6665;SDS011;3369;49.906;8.598;2023-09-19T05:48:41;4.67;;;3.00;;
6665;SDS011;3369;49.906;8.598;2023-09-19T05:51:08;4.13;;;2.87;;
6665;SDS011;3369;49.906;8.598;2023-09-19T05:53:34;3.60;;;2.83;;
6665;SDS011;3369;49.906;8.598;2023-09-19T05:56:00;4.77;;;2.97;;
6665;SDS011;3369;49.906;8.598;2023-09-19T05:58:26;5.30;;;3.67;;
6665;SDS011;3369;49.906;8.598;2023-09-19T06:00:52;5.20;;;3.30;;
6665;SDS011;3369;49.906;8.598;2023-09-19T06:03:17;4.07;;;2.80;;
6665;SDS011;3369;49.906;8.598;2023-09-19T06:05:44;4.80;;;3.17;;
6665;SDS011;3369;49.906;8.598;2023-09-19T06:08:11;3.67;;;2.70;;
6665;SDS011;3369;49.906;8.598;2023-09-19T06:10:37;4.57;;;3.07;;
6665;SDS011;3369;49.906;8.598;2023-09-19T06:13:03;3.43;;;2.90;;
6665;SDS011;3369;49.906;8.598;2023-09-19T06:15:34;4.10;;;2.80;;
6665;SDS011;3369;49.906;8.598;2023-09-19T06:18:01;3.67;;;3.00;;
6665;SDS011;3369;49.906;8.598;2023-09-19T06:20:27;3.60;;;2.63;;
6665;SDS011;3369;49.906;8.598;2023-09-19T06:22:53;3.53;;;2.73;;
6665;SDS011;3369;49.906;8.598;2023-09-19T06:25:19;2.97;;;2.30;;
6665;SDS011;3369;49.906;8.598;2023-09-19T06:27:45;3.53;;;2.70;;
6665;SDS011;3369;49.906;8.598;2023-09-19T06:30:12;3.83;;;2.53;;
6665;SDS011;3369;49.906;8.598;2023-09-19T06:32:38;4.00;;;2.93;;
6665;SDS011;3369;49.906;8.598;2023-09-19T06:35:06;5.17;;;2.83;;
6665;SDS011;3369;49.906;8.598;2023-09-19T06:37:33;4.00;;;2.37;;
6665;SDS011;3369;49.906;8.598;2023-09-19T06:40:09;4.13;;;2.30;;
6665;SDS011;3369;49.906;8.598;2023-09-19T06:43:00;6.33;;;2.70;;
6665;SDS011;3369;49.906;8.598;2023-09-19T06:45:27;5.10;;;2.00;;
6665;SDS011;3369;49.906;8.598;2023-09-19T06:47:53;3.20;;;2.27;;
6665;SDS011;3369;49.906;8.598;2023-09-19T06:50:22;5.70;;;2.43;;
6665;SDS011;3369;49.906;8.598;2023-09-19T06:52:49;2.63;;;1.83;;
6665;SDS011;3369;49.906;8.598;2023-09-19T06:55:16;3.23;;;2.27;;
6665;SDS011;3369;49.906;8.598;2023-09-19T06:57:44;4.07;;;2.20;;
6665;SDS011;3369;49.906;8.598;2023-09-19T07:00:13;4.97;;;2.40;;
6665;SDS011;3369;49.906;8.598;2023-09-19T07:02:45;5.57;;;2.10;;
6665;SDS011;3369;49.906;8.598;2023-09-19T07:05:19;4.37;;;2.23;;
6665;SDS011;3369;49.906;8.598;2023-09-19T07:07:45;3.87;;;2.07;;
6665;SDS011;3369;49.906;8.598;2023-09-19T07:10:11;4.13;;;2.53;;
6665;SDS011;3369;49.906;8.598;2023-09-19T07:12:38;6.13;;;2.33;;
6665;SDS011;3369;49.906;8.598;2023-09-19T07:15:04;2.70;;;2.30;;
6665;SDS011;3369;49.906;8.598;2023-09-19T07:17:31;5.73;;;2.23;;
6665;SDS011;3369;49.906;8.598;2023-09-19T07:19:58;6.50;;;2.60;;
6665;SDS011;3369;49.906;8.598;2023-09-19T07:22:23;5.97;;;3.00;;
6665;SDS011;3369;49.906;8.598;2023-09-19T07:24:51;3.80;;;2.07;;
6665;SDS011;3369;49.906;8.598;2023-09-19T07:27:23;4.53;;;2.30;;
6665;SDS011;3369;49.906;8.598;2023-09-19T07:29:53;3.60;;;2.50;;
6665;SDS011;3369;49.906;8.598;2023-09-19T07:32:20;8.00;;;2.50;;
6665;SDS011;3369;49.906;8.598;2023-09-19T07:34:45;5.70;;;2.20;;
6665;SDS011;3369;49.906;8.598;2023-09-19T07:37:12;5.37;;;2.33;;
6665;SDS011;3369;49.906;8.598;2023-09-19T07:39:41;4.83;;;2.17;;
6665;SDS011;3369;49.906;8.598;2023-09-19T07:42:17;2.57;;;1.87;;
6665;SDS011;3369;49.906;8.598;2023-09-19T07:44:46;8.37;;;2.17;;
6665;SDS011;3369;49.906;8.598;2023-09-19T07:47:15;4.50;;;1.83;;
6665;SDS011;3369;49.906;8.598;2023-09-19T07:49:42;3.90;;;1.80;;
6665;SDS011;3369;49.906;8.598;2023-09-19T07:52:18;3.87;;;2.00;;
6665;SDS011;3369;49.906;8.598;2023-09-19T07:54:48;4.80;;;1.97;;
6665;SDS011;3369;49.906;8.598;2023-09-19T07:57:22;4.77;;;2.07;;
6665;SDS011;3369;49.906;8.598;2023-09-19T07:59:48;3.67;;;1.90;;
6665;SDS011;3369;49.906;8.598;2023-09-19T08:02:14;3.53;;;1.50;;
6665;SDS011;3369;49.906;8.598;2023-09-19T08:04:43;4.17;;;1.77;;
6665;SDS011;3369;49.906;8.598;2023-09-19T08:07:11;6.50;;;1.80;;
6665;SDS011;3369;49.906;8.598;2023-09-19T08:09:38;3.30;;;1.50;;
6665;SDS011;3369;49.906;8.598;2023-09-19T08:12:04;3.17;;;1.77;;
6665;SDS011;3369;49.906;8.598;2023-09-19T08:14:33;4.03;;;2.00;;
6665;SDS011;3369;49.906;8.598;2023-09-19T08:16:59;3.67;;;1.60;;
6665;SDS011;3369;49.906;8.598;2023-09-19T08:19:25;3.87;;;1.57;;
6665;SDS011;3369;49.906;8.598;2023-09-19T08:21:57;2.97;;;1.27;;
6665;SDS011;3369;49.906;8.598;2023-09-19T08:24:24;4.07;;;1.50;;
6665;SDS011;3369;49.906;8.598;2023-09-19T08:26:53;4.40;;;1.30;;
6665;SDS011;3369;49.906;8.598;2023-09-19T08:29:20;5.40;;;1.60;;
6665;SDS011;3369;49.906;8.598;2023-09-19T08:31:45;6.20;;;1.80;;
6665;SDS011;3369;49.906;8.598;2023-09-19T08:34:14;4.53;;;1.90;;
6665;SDS011;3369;49.906;8.598;2023-09-19T08:36:40;8.07;;;1.80;;
6665;SDS011;3369;49.906;8.598;2023-09-19T08:39:08;4.83;;;1.83;;
6665;SDS011;3369;49.906;8.598;2023-09-19T08:41:34;2.33;;;1.30;;
6665;SDS011;3369;49.906;8.598;2023-09-19T08:43:59;5.43;;;1.80;;
6665;SDS011;3369;49.906;8.598;2023-09-19T08:46:28;4.77;;;1.70;;
6665;SDS011;3369;49.906;8.598;2023-09-19T08:48:58;3.57;;;1.80;;
6665;SDS011;3369;49.906;8.598;2023-09-19T08:54:12;5.10;;;1.80;;
6665;SDS011;3369;49.906;8.598;2023-09-19T08:56:54;4.63;;;1.93;;
6665;SDS011;3369;49.906;8.598;2023-09-19T08:59:22;3.33;;;1.70;;
6665;SDS011;3369;49.906;8.598;2023-09-19T09:01:56;2.47;;;1.60;;
6665;SDS011;3369;49.906;8.598;2023-09-19T09:04:27;4.83;;;1.73;;
6665;SDS011;3369;49.906;8.598;2023-09-19T09:07:11;6.00;;;2.00;;
6665;SDS011;3369;49.906;8.598;2023-09-19T09:09:55;4.07;;;1.73;;
6665;SDS011;3369;49.906;8.598;2023-09-19T09:12:32;6.23;;;1.90;;
6665;SDS011;3369;49.906;8.598;2023-09-19T09:15:03;3.03;;;1.53;;
6665;SDS011;3369;49.906;8.598;2023-09-19T09:17:29;2.83;;;1.67;;
6665;SDS011;3369;49.906;8.598;2023-09-19T09:19:56;3.20;;;1.80;;
6665;SDS011;3369;49.906;8.598;2023-09-19T09:22:22;3.00;;;1.63;;
6665;SDS011;3369;49.906;8.598;2023-09-19T09:24:53;5.73;;;1.90;;
6665;SDS011;3369;49.906;8.598;2023-09-19T09:27:23;5.00;;;2.00;;
6665;SDS011;3369;49.906;8.598;2023-09-19T09:29:51;5.90;;;2.23;;
6665;SDS011;3369;49.906;8.598;2023-09-19T09:32:29;3.77;;;1.60;;
6665;SDS011;3369;49.906;8.598;2023-09-19T09:35:07;3.63;;;1.40;;
6665;SDS011;3369;49.906;8.598;2023-09-19T09:38:06;7.20;;;1.70;;
6665;SDS011;3369;49.906;8.598;2023-09-19T09:40:46;5.83;;;1.50;;
6665;SDS011;3369;49.906;8.598;2023-09-19T09:43:39;6.00;;;1.73;;
6665;SDS011;3369;49.906;8.598;2023-09-19T09:49:27;2.67;;;1.60;;
6665;SDS011;3369;49.906;8.598;2023-09-19T09:54:59;5.80;;;1.93;;
6665;SDS011;3369;49.906;8.598;2023-09-19T09:57:36;4.97;;;1.60;;
6665;SDS011;3369;49.906;8.598;2023-09-19T10:00:07;5.07;;;1.87;;
6665;SDS011;3369;49.906;8.598;2023-09-19T10:02:38;4.60;;;1.80;;
6665;SDS011;3369;49.906;8.598;2023-09-19T10:05:18;5.30;;;1.60;;
6665;SDS011;3369;49.906;8.598;2023-09-19T10:07:56;5.33;;;2.07;;
6665;SDS011;3369;49.906;8.598;2023-09-19T10:10:36;6.77;;;2.10;;
6665;SDS011;3369;49.906;8.598;2023-09-19T10:13:22;5.87;;;2.30;;
6665;SDS011;3369;49.906;8.598;2023-09-19T10:15:54;6.57;;;2.10;;
6665;SDS011;3369;49.906;8.598;2023-09-19T10:18:25;6.03;;;2.20;;
6665;SDS011;3369;49.906;8.598;2023-09-19T10:20:53;5.40;;;2.10;;
6665;SDS011;3369;49.906;8.598;2023-09-19T10:23:20;4.47;;;2.03;;
6665;SDS011;3369;49.906;8.598;2023-09-19T10:25:57;6.07;;;2.20;;
6665;SDS011;3369;49.906;8.598;2023-09-19T10:28:28;7.23;;;2.37;;
6665;SDS011;3369;49.906;8.598;2023-09-19T10:33:56;3.60;;;1.93;;
6665;SDS011;3369;49.906;8.598;2023-09-19T10:36:24;10.30;;;2.40;;
6665;SDS011;3369;49.906;8.598;2023-09-19T10:39:09;9.93;;;2.00;;
6665;SDS011;3369;49.906;8.598;2023-09-19T10:41:39;4.87;;;1.90;;
6665;SDS011;3369;49.906;8.598;2023-09-19T10:44:09;5.70;;;2.07;;
6665;SDS011;3369;49.906;8.598;2023-09-19T10:46:54;9.13;;;2.57;;
6665;SDS011;3369;49.906;8.598;2023-09-19T10:49:58;8.07;;;1.90;;
6665;SDS011;3369;49.906;8.598;2023-09-19T10:52:25;5.97;;;2.23;;
6665;SDS011;3369;49.906;8.598;2023-09-19T10:55:04;7.03;;;2.23;;
6665;SDS011;3369;49.906;8.598;2023-09-19T10:57:40;6.83;;;1.90;;
6665;SDS011;3369;49.906;8.598;2023-09-19T11:00:16;6.13;;;1.97;;
6665;SDS011;3369;49.906;8.598;2023-09-19T11:03:16;7.70;;;2.37;;
6665;SDS011;3369;49.906;8.598;2023-09-19T11:06:16;5.50;;;2.43;;
6665;SDS011;3369;49.906;8.598;2023-09-19T11:09:02;6.10;;;2.30;;
6665;SDS011;3369;49.906;8.598;2023-09-19T11:15:03;3.17;;;1.63;;
6665;SDS011;3369;49.906;8.598;2023-09-19T11:18:06;4.80;;;1.67;;
6665;SDS011;3369;49.906;8.598;2023-09-19T11:26:47;7.50;;;2.70;;
6665;SDS011;3369;49.906;8.598;2023-09-19T11:29:26;5.47;;;1.63;;
6665;SDS011;3369;49.906;8.598;2023-09-19T11:48:22;5.17;;;1.90;;
6665;SDS011;3369;49.906;8.598;2023-09-19T11:51:43;4.30;;;1.83;;
6665;SDS011;3369;49.906;8.598;2023-09-19T11:54:13;6.10;;;1.80;;
6665;SDS011;3369;49.906;8.598;2023-09-19T11:56:45;5.97;;;1.70;;
6665;SDS011;3369;49.906;8.598;2023-09-19T11:59:22;8.10;;;1.87;;
6665;SDS011;3369;49.906;8.598;2023-09-19T12:05:27;4.27;;;1.67;;
6665;SDS011;3369;49.906;8.598;2023-09-19T12:11:31;3.87;;;1.60;;
6665;SDS011;3369;49.906;8.598;2023-09-19T12:14:24;5.53;;;1.60;;
6665;SDS011;3369;49.906;8.598;2023-09-19T12:22:54;4.43;;;2.10;;
6665;SDS011;3369;49.906;8.598;2023-09-19T12:29:05;6.93;;;1.87;;
6665;SDS011;3369;49.906;8.598;2023-09-19T12:31:57;8.47;;;2.33;;
6665;SDS011;3369;49.906;8.598;2023-09-19T12:34:29;4.73;;;1.50;;
6665;SDS011;3369;49.906;8.598;2023-09-19T12:40:10;4.67;;;1.33;;
6665;SDS011;3369;49.906;8.598;2023-09-19T12:43:04;4.83;;;1.30;;
6665;SDS011;3369;49.906;8.598;2023-09-19T12:45:40;5.83;;;1.63;;
6665;SDS011;3369;49.906;8.598;2023-09-19T12:48:47;5.70;;;1.40;;
6665;SDS011;3369;49.906;8.598;2023-09-19T13:11:19;4.40;;;1.60;;
6665;SDS011;3369;49.906;8.598;2023-09-19T13:20:23;4.23;;;1.73;;
6665;SDS011;3369;49.906;8.598;2023-09-19T13:22:54;4.20;;;1.60;;
6665;SDS011;3369;49.906;8.598;2023-09-19T13:25:43;2.53;;;1.60;;
6665;SDS011;3369;49.906;8.598;2023-09-19T13:28:09;3.77;;;1.50;;
6665;SDS011;3369;49.906;8.598;2023-09-19T13:30:45;3.87;;;1.60;;
6665;SDS011;3369;49.906;8.598;2023-09-19T13:33:33;4.17;;;1.63;;
6665;SDS011;3369;49.906;8.598;2023-09-19T13:36:11;2.17;;;1.40;;
6665;SDS011;3369;49.906;8.598;2023-09-19T13:38:51;3.50;;;1.73;;
6665;SDS011;3369;49.906;8.598;2023-09-19T13:44:46;2.33;;;1.50;;
6665;SDS011;3369;49.906;8.598;2023-09-19T13:47:11;3.37;;;1.43;;
6665;SDS011;3369;49.906;8.598;2023-09-19T13:49:48;2.00;;;1.13;;
6665;SDS011;3369;49.906;8.598;2023-09-19T13:52:21;4.33;;;1.30;;
6665;SDS011;3369;49.906;8.598;2023-09-19T13:55:10;2.35;;;1.20;;
6665;SDS011;3369;49.906;8.598;2023-09-19T13:57:40;2.97;;;1.40;;
6665;SDS011;3369;49.906;8.598;2023-09-19T14:00:07;3.87;;;1.40;;
6665;SDS011;3369;49.906;8.598;2023-09-19T14:02:35;2.40;;;1.33;;
6665;SDS011;3369;49.906;8.598;2023-09-19T14:05:01;2.97;;;1.70;;
6665;SDS011;3369;49.906;8.598;2023-09-19T14:10:11;2.90;;;1.40;;
6665;SDS011;3369;49.906;8.598;2023-09-19T14:12:40;4.27;;;1.57;;
6665;SDS011;3369;49.906;8.598;2023-09-19T14:15:21;2.10;;;1.50;;
6665;SDS011;3369;49.906;8.598;2023-09-19T14:20:47;2.00;;;1.23;;
6665;SDS011;3369;49.906;8.598;2023-09-19T14:23:15;3.17;;;1.50;;
6665;SDS011;3369;49.906;8.598;2023-09-19T14:25:44;1.53;;;1.10;;
6665;SDS011;3369;49.906;8.598;2023-09-19T14:28:10;1.90;;;1.23;;
6665;SDS011;3369;49.906;8.598;2023-09-19T14:30:37;3.27;;;1.43;;
6665;SDS011;3369;49.906;8.598;2023-09-19T14:33:05;2.90;;;1.50;;
6665;SDS011;3369;49.906;8.598;2023-09-19T14:35:33;1.80;;;1.30;;
6665;SDS011;3369;49.906;8.598;2023-09-19T14:38:02;3.00;;;1.20;;
6665;SDS011;3369;49.906;8.598;2023-09-19T14:40:28;1.87;;;1.37;;
6665;SDS011;3369;49.906;8.598;2023-09-19T14:42:54;3.77;;;1.30;;
6665;SDS011;3369;49.906;8.598;2023-09-19T14:45:19;1.60;;;1.20;;
6665;SDS011;3369;49.906;8.598;2023-09-19T14:47:45;2.07;;;1.20;;
6665;SDS011;3369;49.906;8.598;2023-09-19T14:50:13;2.17;;;1.40;;
6665;SDS011;3369;49.906;8.598;2023-09-19T14:52:44;2.50;;;1.17;;
6665;SDS011;3369;49.906;8.598;2023-09-19T14:55:12;2.50;;;1.40;;
6665;SDS011;3369;49.906;8.598;2023-09-19T14:57:49;1.03;;;0.93;;
6665;SDS011;3369;49.906;8.598;2023-09-19T15:03:34;2.50;;;1.50;;
6665;SDS011;3369;49.906;8.598;2023-09-19T15:06:15;3.37;;;1.43;;
6665;SDS011;3369;49.906;8.598;2023-09-19T15:08:46;1.77;;;1.30;;
6665;SDS011;3369;49.906;8.598;2023-09-19T15:11:36;3.53;;;1.40;;
6665;SDS011;3369;49.906;8.598;2023-09-19T15:14:06;2.30;;;1.07;;
6665;SDS011;3369;49.906;8.598;2023-09-19T15:17:30;2.07;;;1.30;;
6665;SDS011;3369;49.906;8.598;2023-09-19T15:26:29;1.70;;;1.00;;
6665;SDS011;3369;49.906;8.598;2023-09-19T15:33:06;1.83;;;1.37;;
6665;SDS011;3369;49.906;8.598;2023-09-19T15:42:17;2.10;;;1.30;;
6665;SDS011;3369;49.906;8.598;2023-09-19T15:44:47;1.43;;;1.10;;
6665;SDS011;3369;49.906;8.598;2023-09-19T15:47:22;1.87;;;0.83;;
6665;SDS011;3369;49.906;8.598;2023-09-19T15:52:44;1.27;;;0.90;;
6665;SDS011;3369;49.906;8.598;2023-09-19T15:55:53;1.57;;;0.97;;
6665;SDS011;3369;49.906;8.598;2023-09-19T15:58:25;2.30;;;0.83;;
6665;SDS011;3369;49.906;8.598;2023-09-19T16:01:13;2.10;;;1.00;;
6665;SDS011;3369;49.906;8.598;2023-09-19T16:04:27;1.00;;;0.90;;
6665;SDS011;3369;49.906;8.598;2023-09-19T16:07:06;3.00;;;1.13;;
6665;SDS011;3369;49.906;8.598;2023-09-19T16:09:56;2.20;;;1.17;;
6665;SDS011;3369;49.906;8.598;2023-09-19T16:15:25;1.30;;;1.20;;
6665;SDS011;3369;49.906;8.598;2023-09-19T16:18:12;1.57;;;1.17;;
6665;SDS011;3369;49.906;8.598;2023-09-19T16:20:51;2.10;;;1.10;;
6665;SDS011;3369;49.906;8.598;2023-09-19T16:23:17;2.70;;;0.90;;
6665;SDS011;3369;49.906;8.598;2023-09-19T16:28:59;1.97;;;1.10;;
6665;SDS011;3369;49.906;8.598;2023-09-19T16:31:50;3.00;;;1.10;;
6665;SDS011;3369;49.906;8.598;2023-09-19T16:34:24;2.00;;;1.23;;
6665;SDS011;3369;49.906;8.598;2023-09-19T16:37:00;1.77;;;1.20;;
6665;SDS011;3369;49.906;8.598;2023-09-19T16:39:25;2.30;;;1.20;;
6665;SDS011;3369;49.906;8.598;2023-09-19T16:41:52;1.73;;;1.03;;
6665;SDS011;3369;49.906;8.598;2023-09-19T16:44:23;1.10;;;0.70;;
6665;SDS011;3369;49.906;8.598;2023-09-19T16:50:14;1.20;;;1.10;;
6665;SDS011;3369;49.906;8.598;2023-09-19T16:52:43;2.30;;;1.20;;
6665;SDS011;3369;49.906;8.598;2023-09-19T16:55:27;1.30;;;0.83;;
6665;SDS011;3369;49.906;8.598;2023-09-19T17:01:06;3.10;;;1.10;;
6665;SDS011;3369;49.906;8.598;2023-09-19T17:03:41;1.63;;;1.40;;
6665;SDS011;3369;49.906;8.598;2023-09-19T17:06:28;2.43;;;1.13;;
6665;SDS011;3369;49.906;8.598;2023-09-19T17:08:56;0.93;;;0.83;;
6665;SDS011;3369;49.906;8.598;2023-09-19T17:11:26;0.90;;;0.87;;
6665;SDS011;3369;49.906;8.598;2023-09-19T17:13:52;1.30;;;0.80;;
6665;SDS011;3369;49.906;8.598;2023-09-19T17:16:28;1.73;;;1.03;;
6665;SDS011;3369;49.906;8.598;2023-09-19T17:19:40;2.23;;;1.33;;
6665;SDS011;3369;49.906;8.598;2023-09-19T17:22:05;1.07;;;0.90;;
6665;SDS011;3369;49.906;8.598;2023-09-19T17:24:34;2.73;;;1.00;;
6665;SDS011;3369;49.906;8.598;2023-09-19T17:27:22;0.93;;;0.70;;
6665;SDS011;3369;49.906;8.598;2023-09-19T17:29:51;1.37;;;0.90;;
6665;SDS011;3369;49.906;8.598;2023-09-19T17:32:53;2.33;;;0.80;;
6665;SDS011;3369;49.906;8.598;2023-09-19T17:35:21;2.33;;;1.10;;
6665;SDS011;3369;49.906;8.598;2023-09-19T17:38:01;0.90;;;0.70;;
6665;SDS011;3369;49.906;8.598;2023-09-19T17:40:46;1.97;;;1.10;;
6665;SDS011;3369;49.906;8.598;2023-09-19T17:43:14;1.63;;;0.90;;
6665;SDS011;3369;49.906;8.598;2023-09-19T17:45:44;2.40;;;0.90;;
6665;SDS011;3369;49.906;8.598;2023-09-19T17:48:14;1.90;;;0.90;;
6665;SDS011;3369;49.906;8.598;2023-09-19T17:50:41;1.80;;;1.13;;
6665;SDS011;3369;49.906;8.598;2023-09-19T17:55:52;1.03;;;0.90;;
6665;SDS011;3369;49.906;8.598;2023-09-19T17:58:22;1.40;;;1.30;;
6665;SDS011;3369;49.906;8.598;2023-09-19T18:01:33;2.00;;;1.00;;
6665;SDS011;3369;49.906;8.598;2023-09-19T18:03:55;1.50;;;0.80;;
6665;SDS011;3369;49.906;8.598;2023-09-19T18:06:22;1.37;;;0.93;;
6665;SDS011;3369;49.906;8.598;2023-09-19T18:08:50;0.93;;;0.83;;
6665;SDS011;3369;49.906;8.598;2023-09-19T18:11:17;1.13;;;1.00;;
6665;SDS011;3369;49.906;8.598;2023-09-19T18:13:49;1.50;;;0.83;;